Time;durP1;ratioP1;P1;durP2;ratioP2;P2;SDS_P1;SDS_P2;PMS_P1;PMS_P2;Temp;Humidity;BMP_temperature;BMP_pressure;BME280_temperature;BME280_humidity;BME280_pressure;Samples;Min_cycle;Max_cycle;Signal;HPM_P1;HPM_P2
2021/08/08 00:01:26;;;;;;;5.10;2.28;;;15.50;99.90;;;;;;5127917;28;20079;-78
2021/08/08 00:03:54;;;;;;;7.00;2.60;;;15.50;99.90;;;;;;5110307;28;20386;-79
2021/08/08 00:06:21;;;;;;;6.13;2.50;;;15.40;99.90;;;;;;5110783;28;20036;-78
2021/08/08 00:08:47;;;;;;;6.10;2.70;;;15.40;99.90;;;;;;5127049;28;20090;-78
2021/08/08 00:11:14;;;;;;;10.20;3.05;;;15.50;99.90;;;;;;5110660;28;20043;-78
2021/08/08 00:13:44;;;;;;;4.75;2.67;;;15.50;99.90;;;;;;5128095;28;20036;-78
2021/08/08 00:16:11;;;;;;;8.48;3.00;;;15.50;99.90;;;;;;5127472;28;20042;-78
2021/08/08 00:18:38;;;;;;;6.00;2.83;;;15.40;99.90;;;;;;5126811;28;20040;-77
2021/08/08 00:21:05;;;;;;;6.97;2.70;;;15.50;99.90;;;;;;5110466;28;20036;-78
2021/08/08 00:23:31;;;;;;;6.80;3.00;;;15.50;99.90;;;;;;5110318;28;20063;-78
2021/08/08 00:25:58;;;;;;;5.03;2.60;;;15.50;99.90;;;;;;5128000;28;20034;-78
2021/08/08 00:28:25;;;;;;;5.63;3.00;;;15.50;99.90;;;;;;5110231;28;20392;-78
2021/08/08 00:30:52;;;;;;;6.35;3.00;;;15.50;99.90;;;;;;5126655;28;20032;-78
2021/08/08 00:33:19;;;;;;;5.97;2.53;;;15.50;99.90;;;;;;5110187;28;20400;-78
2021/08/08 00:35:45;;;;;;;5.75;2.78;;;15.60;99.90;;;;;;5109768;28;20084;-78
2021/08/08 00:38:13;;;;;;;6.55;2.67;;;15.50;99.90;;;;;;5126999;28;20040;-78
2021/08/08 00:40:39;;;;;;;4.13;2.60;;;15.60;99.90;;;;;;5109557;28;20046;-77
2021/08/08 00:43:10;;;;;;;6.82;2.88;;;15.60;99.90;;;;;;5109994;28;20122;-78
2021/08/08 00:45:37;;;;;;;5.53;2.67;;;15.60;99.90;;;;;;5126853;28;20038;-78
2021/08/08 00:48:04;;;;;;;6.53;3.00;;;15.60;99.90;;;;;;5126355;28;20055;-79
2021/08/08 00:50:31;;;;;;;4.15;2.40;;;15.60;99.90;;;;;;5109660;28;20036;-78
2021/08/08 00:52:58;;;;;;;6.82;2.60;;;15.60;99.90;;;;;;5109391;28;20484;-78
2021/08/08 00:55:25;;;;;;;6.35;2.65;;;15.60;99.90;;;;;;5109985;28;20114;-79
2021/08/08 00:57:51;;;;;;;5.93;2.60;;;15.60;99.90;;;;;;5109330;28;20040;-79
2021/08/08 01:00:19;;;;;;;6.60;2.35;;;15.60;99.90;;;;;;5126511;28;20043;-79
2021/08/08 01:02:53;;;;;;;4.60;2.45;;;15.60;99.90;;;;;;5092323;28;20392;-79
2021/08/08 01:05:28;;;;;;;4.03;2.35;;;15.60;99.90;;;;;;5127844;28;20044;-78
2021/08/08 01:07:59;;;;;;;;;;;15.60;99.90;;;;;;5126665;28;20092;-77
2021/08/08 01:10:27;;;;;;;8.32;2.45;;;15.70;99.90;;;;;;5136319;28;19922;-77
2021/08/08 01:12:55;;;;;;;4.78;2.53;;;15.70;99.90;;;;;;5147870;28;20039;-77
2021/08/08 01:15:22;;;;;;;4.88;2.95;;;15.70;99.90;;;;;;5147158;28;20145;-77
2021/08/08 01:17:50;;;;;;;4.75;2.33;;;15.70;99.90;;;;;;5129711;28;20056;-77
2021/08/08 01:20:18;;;;;;;6.93;2.75;;;15.60;99.90;;;;;;5147222;28;20063;-77
2021/08/08 01:22:51;;;;;;;5.32;2.45;;;15.60;99.90;;;;;;5147060;28;20032;-77
2021/08/08 01:25:18;;;;;;;5.32;2.60;;;15.50;99.90;;;;;;5148520;28;20096;-77
2021/08/08 01:27:45;;;;;;;5.07;2.90;;;15.50;99.90;;;;;;5146908;28;20084;-77
2021/08/08 01:30:11;;;;;;;5.47;3.13;;;15.50;99.90;;;;;;5146434;28;20392;-77
2021/08/08 01:32:38;;;;;;;4.30;2.55;;;15.50;99.90;;;;;;5130422;28;20499;-77
2021/08/08 01:35:05;;;;;;;5.43;2.53;;;15.50;99.90;;;;;;5129450;28;20035;-77
2021/08/08 01:37:33;;;;;;;5.70;2.85;;;15.50;99.90;;;;;;5148055;28;20090;-76
2021/08/08 01:40:22;;;;;;;8.40;2.75;;;15.50;99.90;;;;;;5129634;28;20107;-77
2021/08/08 01:42:52;;;;;;;4.85;2.72;;;15.60;99.90;;;;;;5146352;28;20084;-77
2021/08/08 01:45:20;;;;;;;5.90;2.55;;;15.60;99.90;;;;;;5146734;28;20048;-77
2021/08/08 01:47:53;;;;;;;5.13;2.38;;;15.50;99.90;;;;;;5129958;28;20039;-77
2021/08/08 01:50:20;;;;;;;5.13;2.72;;;15.60;99.90;;;;;;5148175;28;20063;-77
2021/08/08 01:52:47;;;;;;;5.18;2.70;;;15.50;99.90;;;;;;5147884;28;20047;-77
2021/08/08 01:55:15;;;;;;;4.65;2.38;;;15.50;99.90;;;;;;5146277;28;20039;-77
2021/08/08 01:57:42;;;;;;;5.72;2.50;;;15.60;99.90;;;;;;5146644;28;20067;-77
2021/08/08 02:00:10;;;;;;;4.53;2.65;;;15.60;99.90;;;;;;5129284;28;20036;-77
2021/08/08 02:02:47;;;;;;;6.85;2.50;;;15.60;99.90;;;;;;5133142;28;20521;-78
2021/08/08 02:05:14;;;;;;;7.25;2.88;;;15.60;99.90;;;;;;5134902;28;20036;-77
2021/08/08 02:07:41;;;;;;;7.15;2.80;;;15.60;99.90;;;;;;5150513;28;20085;-76
2021/08/08 02:10:08;;;;;;;6.63;2.60;;;15.60;99.90;;;;;;5149912;28;20036;-77
2021/08/08 02:12:35;;;;;;;7.03;2.95;;;15.60;99.90;;;;;;5133747;28;20396;-76
2021/08/08 02:15:02;;;;;;;5.57;2.65;;;15.60;99.90;;;;;;5116251;28;20035;-77
2021/08/08 02:17:29;;;;;;;6.70;2.78;;;15.60;99.90;;;;;;5133386;28;20040;-77
2021/08/08 02:19:55;;;;;;;5.82;2.50;;;15.60;99.90;;;;;;5132955;28;20061;-77
2021/08/08 02:22:22;;;;;;;6.80;2.90;;;15.60;99.90;;;;;;5133336;28;20035;-77
2021/08/08 02:24:49;;;;;;;6.47;2.85;;;15.60;99.90;;;;;;5133290;28;20183;-77
2021/08/08 02:27:16;;;;;;;5.07;3.10;;;15.60;99.90;;;;;;5149860;28;20043;-78
2021/08/08 02:29:43;;;;;;;8.45;3.03;;;15.60;99.90;;;;;;5151425;28;20040;-79
2021/08/08 02:32:09;;;;;;;5.82;2.95;;;15.60;99.90;;;;;;5132966;28;20468;-78
2021/08/08 02:34:36;;;;;;;7.03;3.05;;;15.50;99.90;;;;;;5116542;28;20065;-78
2021/08/08 02:37:03;;;;;;;5.82;3.15;;;15.50;99.90;;;;;;5132757;28;20474;-78
2021/08/08 02:39:30;;;;;;;6.68;3.10;;;15.50;99.90;;;;;;5116420;28;20118;-78
2021/08/08 02:41:57;;;;;;;6.57;3.50;;;15.50;99.90;;;;;;5115881;28;20039;-79
2021/08/08 02:44:24;;;;;;;7.97;3.20;;;15.50;99.90;;;;;;5133047;28;20040;-78
2021/08/08 02:46:51;;;;;;;6.63;3.30;;;15.40;99.90;;;;;;5116260;28;20072;-78
2021/08/08 02:49:18;;;;;;;8.75;3.50;;;15.40;99.90;;;;;;5132345;28;20050;-79
2021/08/08 02:51:46;;;;;;;6.63;3.40;;;15.50;99.90;;;;;;5149877;28;20428;-78
2021/08/08 02:54:16;;;;;;;7.10;3.47;;;15.40;99.90;;;;;;5132370;28;20084;-79
2021/08/08 02:56:43;;;;;;;8.00;3.70;;;15.40;99.90;;;;;;5133215;28;20034;-79
2021/08/08 02:59:10;;;;;;;6.28;3.80;;;15.40;99.90;;;;;;5149270;28;20047;-79
2021/08/08 03:01:37;;;;;;;6.25;3.45;;;15.50;99.90;;;;;;5116162;28;20036;-79
2021/08/08 03:04:04;;;;;;;10.57;3.75;;;15.40;99.90;;;;;;5115189;28;20066;-79
2021/08/08 03:06:31;;;;;;;6.70;4.10;;;15.50;99.90;;;;;;5132820;28;20043;-78
2021/08/08 03:08:58;;;;;;;8.65;3.53;;;15.40;99.90;;;;;;5132531;28;20035;-79
2021/08/08 03:11:24;;;;;;;8.07;4.13;;;15.40;99.90;;;;;;5115322;28;20043;-79
2021/08/08 03:13:52;;;;;;;7.10;4.07;;;15.40;99.90;;;;;;5132697;28;20054;-79
2021/08/08 03:16:18;;;;;;;8.02;3.80;;;15.40;99.90;;;;;;5132038;28;20031;-79
2021/08/08 03:18:45;;;;;;;6.50;3.83;;;15.50;99.90;;;;;;5115606;28;20043;-79
2021/08/08 03:21:12;;;;;;;7.82;3.90;;;15.50;99.90;;;;;;5131880;28;20035;-79
2021/08/08 03:23:39;;;;;;;5.95;3.63;;;15.40;99.90;;;;;;5132278;28;20039;-78
2021/08/08 03:26:06;;;;;;;9.10;4.00;;;15.40;99.90;;;;;;5115078;28;20039;-78
2021/08/08 03:28:33;;;;;;;9.15;4.38;;;15.40;99.90;;;;;;5132352;28;20536;-79
2021/08/08 03:31:00;;;;;;;7.03;4.13;;;15.40;99.90;;;;;;5115512;28;20047;-79
2021/08/08 03:33:27;;;;;;;12.52;4.90;;;15.40;99.90;;;;;;5148503;28;20036;-78
2021/08/08 03:35:54;;;;;;;7.50;4.72;;;15.40;99.90;;;;;;5132090;28;20032;-79
2021/08/08 03:38:20;;;;;;;9.77;4.60;;;15.40;99.90;;;;;;5114775;28;20032;-79
2021/08/08 03:40:47;;;;;;;7.68;5.00;;;15.40;99.90;;;;;;5115177;28;20045;-79
2021/08/08 03:43:15;;;;;;;8.15;4.88;;;15.40;99.90;;;;;;5114883;28;20048;-79
2021/08/08 03:45:41;;;;;;;10.77;4.78;;;15.50;99.90;;;;;;5148816;28;20085;-79
2021/08/08 03:48:08;;;;;;;7.93;4.88;;;15.40;99.90;;;;;;5114467;28;20032;-79
2021/08/08 03:50:35;;;;;;;7.32;5.30;;;15.40;99.90;;;;;;5148955;28;20072;-79
2021/08/08 03:53:03;;;;;;;7.30;5.03;;;15.40;99.90;;;;;;5149730;28;20475;-79
2021/08/08 03:55:30;;;;;;;7.85;5.25;;;15.40;99.90;;;;;;5114442;28;20099;-79
2021/08/08 03:57:57;;;;;;;7.43;5.40;;;15.50;99.90;;;;;;5114848;28;20035;-79
2021/08/08 04:00:24;;;;;;;10.00;6.20;;;15.50;99.90;;;;;;5114608;28;20039;-79
2021/08/08 04:02:51;;;;;;;9.23;5.38;;;15.50;99.90;;;;;;5148325;28;20071;-79
2021/08/08 04:05:18;;;;;;;9.43;6.07;;;15.50;99.90;;;;;;5131125;28;20059;-79
2021/08/08 04:07:45;;;;;;;10.45;6.10;;;15.50;99.90;;;;;;5148245;28;20122;-79
2021/08/08 04:10:12;;;;;;;9.52;5.72;;;15.50;99.90;;;;;;5113684;28;20044;-79
2021/08/08 04:12:39;;;;;;;10.57;6.28;;;15.50;99.90;;;;;;5131024;28;20059;-79
2021/08/08 04:15:06;;;;;;;10.00;7.25;;;15.60;99.90;;;;;;5147547;28;20035;-79
2021/08/08 04:17:33;;;;;;;10.60;7.10;;;15.60;99.90;;;;;;5147036;28;20088;-79
2021/08/08 04:20:00;;;;;;;10.10;6.85;;;15.50;99.90;;;;;;5130992;28;20122;-78
2021/08/08 04:22:26;;;;;;;11.35;7.18;;;15.50;99.90;;;;;;5147567;28;20115;-79
2021/08/08 04:24:53;;;;;;;9.00;6.72;;;15.50;99.90;;;;;;5130691;28;20114;-79
2021/08/08 04:27:20;;;;;;;10.52;6.95;;;15.50;99.90;;;;;;5130642;28;20039;-78
2021/08/08 04:29:47;;;;;;;12.02;7.32;;;15.50;99.90;;;;;;5130937;28;20039;-78
2021/08/08 04:32:14;;;;;;;12.00;7.50;;;15.50;99.90;;;;;;5113878;28;20035;-79
2021/08/08 04:34:41;;;;;;;12.65;7.18;;;15.50;99.90;;;;;;5131051;28;20043;-79
2021/08/08 04:37:08;;;;;;;12.70;7.03;;;15.50;99.90;;;;;;5147844;28;20396;-79
2021/08/08 04:39:35;;;;;;;10.07;7.32;;;15.50;99.90;;;;;;5130571;28;20051;-79
2021/08/08 04:42:02;;;;;;;9.82;7.93;;;15.40;99.90;;;;;;5114028;28;20062;-79
2021/08/08 04:44:29;;;;;;;13.02;7.85;;;15.40;99.90;;;;;;5130513;28;20032;-79
2021/08/08 04:46:56;;;;;;;11.60;8.02;;;15.40;99.90;;;;;;5113962;28;20464;-79
2021/08/08 04:49:23;;;;;;;10.13;7.85;;;15.40;99.90;;;;;;5130108;28;20525;-79
2021/08/08 04:51:50;;;;;;;10.52;8.32;;;15.40;99.90;;;;;;5144104;28;20051;-79
2021/08/08 04:54:17;;;;;;;13.10;8.80;;;15.40;99.90;;;;;;5121444;28;20032;-79
2021/08/08 04:56:45;;;;;;;14.10;9.65;;;15.50;99.90;;;;;;5130703;28;20050;-79
2021/08/08 04:59:12;;;;;;;13.07;9.27;;;15.50;99.90;;;;;;5130726;28;20035;-79
2021/08/08 05:01:39;;;;;;;12.60;9.60;;;15.50;99.90;;;;;;5146957;28;20032;-79
2021/08/08 05:04:07;;;;;;;17.08;10.82;;;15.60;99.90;;;;;;5147195;28;20051;-79
2021/08/08 05:06:34;;;;;;;14.23;10.02;;;15.60;99.90;;;;;;5101494;28;20043;-79
2021/08/08 05:09:05;;;;;;;14.23;10.13;;;15.70;99.90;;;;;;5126848;28;20084;-79
2021/08/08 05:11:32;;;;;;;14.85;10.32;;;15.70;99.90;;;;;;5109474;28;20036;-79
2021/08/08 05:14:00;;;;;;;16.58;9.85;;;15.80;99.90;;;;;;5110169;28;20073;-79
2021/08/08 05:16:27;;;;;;;13.13;10.00;;;15.90;99.90;;;;;;5109844;28;20038;-79
2021/08/08 05:18:54;;;;;;;16.65;11.23;;;15.90;99.90;;;;;;5093472;28;20495;-79
2021/08/08 05:21:21;;;;;;;17.63;11.48;;;16.00;99.90;;;;;;5092825;28;20117;-79
2021/08/08 05:23:48;;;;;;;17.85;9.70;;;16.00;99.90;;;;;;5093569;28;20536;-79
2021/08/08 05:26:15;;;;;;;14.20;9.88;;;16.10;99.90;;;;;;5109886;28;20491;-79
2021/08/08 05:28:42;;;;;;;13.32;9.90;;;16.20;99.90;;;;;;5109340;28;20047;-79
2021/08/08 05:31:10;;;;;;;20.15;10.40;;;16.20;99.90;;;;;;5093491;28;20381;-79
2021/08/08 05:33:37;;;;;;;14.13;9.75;;;16.20;99.90;;;;;;5126257;28;20032;-79
2021/08/08 05:36:04;;;;;;;14.65;8.98;;;16.20;99.90;;;;;;5094447;28;20040;-78
2021/08/08 05:38:31;;;;;;;18.67;10.48;;;16.20;99.90;;;;;;5131498;28;20040;-79
2021/08/08 05:40:58;;;;;;;16.63;10.15;;;16.10;99.90;;;;;;5130707;28;20038;-79
2021/08/08 05:43:25;;;;;;;11.68;8.82;;;16.10;99.90;;;;;;5113361;28;20036;-79
2021/08/08 05:45:52;;;;;;;15.80;9.60;;;16.10;99.90;;;;;;5130549;28;20105;-79
2021/08/08 05:48:19;;;;;;;10.70;8.48;;;16.10;99.90;;;;;;5097295;28;20048;-79
2021/08/08 05:50:46;;;;;;;12.90;7.90;;;16.00;99.90;;;;;;5113078;28;20466;-78
2021/08/08 05:53:13;;;;;;;11.13;8.10;;;16.00;99.90;;;;;;5097090;28;20028;-79
2021/08/08 05:55:46;;;;;;;10.55;7.47;;;16.00;99.90;;;;;;5130017;28;20047;-79
2021/08/08 05:58:14;;;;;;;10.70;7.35;;;16.00;99.90;;;;;;5114538;28;20067;-79
2021/08/08 06:00:41;;;;;;;11.70;7.28;;;16.00;99.90;;;;;;5131014;28;20048;-79
2021/08/08 06:03:09;;;;;;;10.90;6.65;;;16.00;99.90;;;;;;5130020;28;20147;-79
2021/08/08 06:05:37;;;;;;;11.20;6.40;;;16.00;99.90;;;;;;5113020;28;20123;-79
2021/08/08 06:08:05;;;;;;;8.52;5.07;;;16.00;99.90;;;;;;5130298;28;20115;-79
2021/08/08 06:10:32;;;;;;;7.70;4.97;;;16.00;99.90;;;;;;5129544;28;20040;-79
2021/08/08 06:12:59;;;;;;;7.72;5.10;;;16.00;99.90;;;;;;5129948;28;20119;-80
2021/08/08 06:15:26;;;;;;;8.02;4.75;;;16.00;99.90;;;;;;5112567;28;20039;-80
2021/08/08 06:17:53;;;;;;;7.25;4.30;;;16.00;99.90;;;;;;5130261;28;20040;-81
2021/08/08 06:20:20;;;;;;;7.68;4.25;;;16.00;99.90;;;;;;5113213;28;20399;-81
2021/08/08 06:22:47;;;;;;;5.82;3.78;;;16.10;99.90;;;;;;5112695;28;20047;-80
2021/08/08 06:25:14;;;;;;;6.43;3.50;;;16.10;99.90;;;;;;5113152;28;20396;-81
2021/08/08 06:27:41;;;;;;;7.00;4.32;;;16.10;99.90;;;;;;5106055;28;20040;-82
2021/08/08 06:30:08;;;;;;;5.15;3.40;;;16.20;99.90;;;;;;5135222;28;20169;-81
2021/08/08 06:32:36;;;;;;;6.43;3.65;;;16.10;99.90;;;;;;5112670;28;20542;-81
2021/08/08 06:35:04;;;;;;;5.97;3.50;;;16.20;99.90;;;;;;5129700;28;20032;-81
2021/08/08 06:37:31;;;;;;;5.55;3.53;;;16.20;99.90;;;;;;5129117;28;20039;-81
2021/08/08 06:39:58;;;;;;;4.65;3.45;;;16.20;99.90;;;;;;5114822;28;20055;-81
2021/08/08 06:42:25;;;;;;;6.30;3.75;;;16.20;99.90;;;;;;5122599;28;20055;-82
2021/08/08 06:44:52;;;;;;;6.35;3.53;;;16.30;99.90;;;;;;5112321;28;20063;-83
2021/08/08 06:47:19;;;;;;;5.55;3.35;;;16.30;99.90;;;;;;5144720;28;20036;-81
2021/08/08 06:49:46;;;;;;;7.22;3.50;;;16.20;99.90;;;;;;5128977;28;20052;-82
2021/08/08 06:52:13;;;;;;;6.60;3.30;;;16.20;99.90;;;;;;5117623;28;20036;-82
2021/08/08 06:54:40;;;;;;;7.70;3.58;;;16.20;99.90;;;;;;5129426;28;20036;-83
2021/08/08 06:57:06;;;;;;;5.38;3.08;;;16.10;99.90;;;;;;5142040;28;20040;-82
2021/08/08 06:59:38;;;;;;;5.10;3.10;;;16.10;99.90;;;;;;5128886;28;20408;-81
2021/08/08 07:02:05;;;;;;;8.95;3.80;;;16.00;99.90;;;;;;5120738;28;20061;-80
2021/08/08 07:04:31;;;;;;;6.93;3.88;;;16.00;99.90;;;;;;5115666;28;20044;-81
2021/08/08 07:06:58;;;;;;;8.00;3.83;;;15.90;99.90;;;;;;5110117;28;20040;-82
2021/08/08 07:09:25;;;;;;;7.03;3.67;;;15.90;99.90;;;;;;5142849;28;20085;-83
2021/08/08 07:11:52;;;;;;;6.50;4.40;;;15.90;99.90;;;;;;5132229;28;20039;-82
2021/08/08 07:14:19;;;;;;;8.95;4.70;;;15.80;99.90;;;;;;5149507;28;20122;-83
2021/08/08 07:16:45;;;;;;;21.08;7.38;;;15.80;99.90;;;;;;5115311;28;20027;-82
2021/08/08 07:19:12;;;;;;;14.40;6.20;;;15.80;99.90;;;;;;5115713;28;20035;-83
2021/08/08 07:21:39;;;;;;;13.75;6.82;;;15.80;99.90;;;;;;5115332;28;20513;-82
2021/08/08 07:24:05;;;;;;;13.88;7.28;;;15.70;99.90;;;;;;5149470;28;20065;-82
2021/08/08 07:26:32;;;;;;;16.35;7.57;;;15.70;99.90;;;;;;5115581;28;20050;-80
2021/08/08 07:28:59;;;;;;;14.15;8.27;;;15.70;99.90;;;;;;5148763;28;20059;-80
2021/08/08 07:31:26;;;;;;;15.02;9.02;;;15.70;99.90;;;;;;5150544;28;20043;-80
2021/08/08 07:33:54;;;;;;;12.50;6.90;;;15.70;99.90;;;;;;5132311;28;20395;-79
2021/08/08 07:36:21;;;;;;;16.33;7.35;;;15.70;99.90;;;;;;5129965;28;20032;-79
2021/08/08 07:38:47;;;;;;;13.55;6.55;;;15.70;99.90;;;;;;5104107;28;20458;-79
2021/08/08 07:41:14;;;;;;;12.82;7.35;;;15.70;99.90;;;;;;5103118;28;20122;-79
2021/08/08 07:43:41;;;;;;;15.40;7.25;;;15.70;99.90;;;;;;5118580;28;20043;-79
2021/08/08 07:46:08;;;;;;;12.20;7.88;;;15.80;99.90;;;;;;5111646;28;20119;-79
2021/08/08 07:48:35;;;;;;;11.52;7.25;;;15.80;99.90;;;;;;5143185;28;20046;-79
2021/08/08 07:51:03;;;;;;;17.33;8.18;;;15.80;99.90;;;;;;5114602;28;20036;-79
2021/08/08 07:53:29;;;;;;;19.70;8.73;;;15.80;99.90;;;;;;5149098;28;20438;-80
2021/08/08 07:55:56;;;;;;;15.13;8.95;;;15.90;99.90;;;;;;5131129;28;20061;-80
2021/08/08 07:58:23;;;;;;;14.50;8.63;;;15.90;99.90;;;;;;5131338;28;20071;-80
2021/08/08 08:00:50;;;;;;;16.70;8.77;;;15.90;99.90;;;;;;5148383;28;20046;-80
2021/08/08 08:03:17;;;;;;;19.27;8.75;;;16.00;99.90;;;;;;5148495;28;20047;-79
2021/08/08 08:05:44;;;;;;;20.63;8.77;;;16.00;99.90;;;;;;5114321;28;20040;-80
2021/08/08 08:08:11;;;;;;;18.73;9.75;;;16.00;99.90;;;;;;5131781;28;20535;-80
2021/08/08 08:10:38;;;;;;;24.08;9.85;;;16.10;99.90;;;;;;5131541;28;20063;-80
2021/08/08 08:13:05;;;;;;;21.08;9.60;;;16.30;99.90;;;;;;5114433;28;20040;-80
2021/08/08 08:15:32;;;;;;;18.70;10.25;;;16.30;99.90;;;;;;5131660;28;20067;-80
2021/08/08 08:17:59;;;;;;;22.98;10.25;;;16.30;99.90;;;;;;5130936;28;20454;-80
2021/08/08 08:20:26;;;;;;;21.30;9.00;;;16.40;99.90;;;;;;5114386;28;20043;-80
2021/08/08 08:22:53;;;;;;;17.05;9.45;;;16.40;99.90;;;;;;5130705;28;20043;-80
2021/08/08 08:25:20;;;;;;;24.83;10.27;;;16.40;99.90;;;;;;5114951;28;20039;-80
2021/08/08 08:27:46;;;;;;;20.30;8.93;;;16.50;99.90;;;;;;5148109;28;20046;-80
2021/08/08 08:30:14;;;;;;;20.42;9.10;;;16.50;99.90;;;;;;5147994;28;20035;-80
2021/08/08 08:32:44;;;;;;;19.15;8.43;;;16.60;99.90;;;;;;5131622;28;20046;-80
2021/08/08 08:35:11;;;;;;;22.95;9.73;;;16.70;99.90;;;;;;5147859;28;20501;-80
2021/08/08 08:37:38;;;;;;;22.20;9.20;;;16.80;99.90;;;;;;5148086;28;20036;-80
2021/08/08 08:40:06;;;;;;;17.30;8.18;;;16.90;99.90;;;;;;5147604;28;20169;-81
2021/08/08 08:42:39;;;;;;;20.85;8.35;;;16.90;99.90;;;;;;5148051;28;20392;-80
2021/08/08 08:45:06;;;;;;;21.23;7.75;;;16.90;99.90;;;;;;5148590;28;20468;-80
2021/08/08 08:47:34;;;;;;;18.98;7.05;;;16.80;99.90;;;;;;5114083;28;20032;-81
2021/08/08 08:50:04;;;;;;;17.25;7.00;;;16.90;99.90;;;;;;5130514;28;20040;-80
2021/08/08 08:52:31;;;;;;;18.90;6.88;;;16.80;99.90;;;;;;5130716;28;20167;-80
2021/08/08 08:54:58;;;;;;;16.63;7.72;;;16.90;99.90;;;;;;5130293;28;20487;-80
2021/08/08 08:57:26;;;;;;;17.55;6.95;;;17.00;99.90;;;;;;5114185;28;20408;-81
2021/08/08 08:59:54;;;;;;;18.48;7.78;;;17.20;99.90;;;;;;5147219;28;20039;-80
2021/08/08 09:02:21;;;;;;;12.65;6.15;;;17.30;99.90;;;;;;5130614;28;20476;-80
2021/08/08 09:04:47;;;;;;;19.45;6.65;;;17.40;99.90;;;;;;5147411;28;20051;-81
2021/08/08 09:07:15;;;;;;;14.85;6.50;;;17.50;99.90;;;;;;5130399;28;20101;-80
2021/08/08 09:09:41;;;;;;;13.43;6.07;;;17.60;99.90;;;;;;5148447;28;20039;-79
2021/08/08 09:12:08;;;;;;;16.70;6.35;;;17.60;99.90;;;;;;5146891;28;20043;-80
2021/08/08 09:14:36;;;;;;;14.43;5.50;;;17.80;99.90;;;;;;5130470;28;20036;-81
2021/08/08 09:17:03;;;;;;;13.93;5.45;;;17.90;99.90;;;;;;5130106;28;20043;-80
2021/08/08 09:19:32;;;;;;;15.13;5.50;;;18.20;99.90;;;;;;5130430;28;20499;-81
2021/08/08 09:21:59;;;;;;;13.30;5.20;;;18.30;99.90;;;;;;5129931;28;20472;-80
2021/08/08 09:24:33;;;;;;;11.82;5.13;;;18.20;99.90;;;;;;5113656;28;20040;-80
2021/08/08 09:27:11;;;;;;;11.10;3.90;;;18.20;99.90;;;;;;5148257;28;20028;-79
2021/08/08 09:29:40;;;;;;;13.50;3.78;;;18.10;99.90;;;;;;5147278;28;20472;-79
2021/08/08 09:32:08;;;;;;;10.02;3.65;;;18.00;99.90;;;;;;5146622;28;20036;-80
2021/08/08 09:34:40;;;;;;;12.48;4.32;;;17.90;99.90;;;;;;5113478;28;20122;-80
2021/08/08 09:37:18;;;;;;;9.32;3.53;;;18.00;99.90;;;;;;5147947;28;20036;-80
2021/08/08 09:39:50;;;;;;;9.50;3.90;;;18.00;99.90;;;;;;5148312;28;20059;-80
2021/08/08 09:42:21;;;;;;;11.13;4.53;;;18.00;99.90;;;;;;5146707;28;20044;-80
2021/08/08 09:45:06;;;;;;;11.73;3.80;;;18.10;99.90;;;;;;5148391;28;20142;-79
2021/08/08 09:47:37;;;;;;;8.77;3.10;;;18.10;99.90;;;;;;5148582;28;20035;-79
2021/08/08 09:50:07;;;;;;;10.57;3.53;;;17.90;99.90;;;;;;5146562;28;20119;-80
2021/08/08 09:52:36;;;;;;;9.52;4.05;;;18.00;99.90;;;;;;5148179;28;20047;-80
2021/08/08 09:55:15;;;;;;;9.90;4.15;;;18.00;99.90;;;;;;5146604;28;20035;-80
2021/08/08 09:57:42;;;;;;;8.50;4.00;;;18.00;99.90;;;;;;5146962;28;20036;-79
2021/08/08 10:00:20;;;;;;;13.20;3.85;;;18.00;99.90;;;;;;5146526;28;20109;-79
2021/08/08 10:02:47;;;;;;;13.55;4.20;;;17.90;99.90;;;;;;5131626;28;20115;-78
2021/08/08 10:05:14;;;;;;;12.85;4.68;;;17.90;99.90;;;;;;5146506;28;20055;-79
2021/08/08 10:07:41;;;;;;;14.13;5.05;;;17.90;99.90;;;;;;5113126;28;20089;-80
2021/08/08 10:10:09;;;;;;;12.82;4.50;;;18.00;99.90;;;;;;5147392;28;20042;-79
2021/08/08 10:12:38;;;;;;;16.33;4.40;;;18.10;99.90;;;;;;5146655;28;20035;-79
2021/08/08 10:15:05;;;;;;;16.45;5.00;;;18.20;99.90;;;;;;5146257;28;20031;-79
2021/08/08 10:17:35;;;;;;;14.27;4.50;;;18.40;99.90;;;;;;5113133;28;20403;-80
2021/08/08 10:20:03;;;;;;;17.80;5.15;;;18.40;99.90;;;;;;5146214;28;20403;-80
2021/08/08 10:22:33;;;;;;;14.95;4.43;;;18.50;99.90;;;;;;5148327;28;20046;-79
2021/08/08 10:25:00;;;;;;;20.38;4.60;;;18.60;99.90;;;;;;5150391;28;20072;-79
2021/08/08 10:27:30;;;;;;;16.88;4.53;;;18.50;99.90;;;;;;5150383;28;20046;-80
2021/08/08 10:29:58;;;;;;;12.85;4.28;;;18.60;99.90;;;;;;5150240;28;20040;-79
2021/08/08 10:32:27;;;;;;;11.85;4.38;;;18.70;99.90;;;;;;5151501;27;20035;-79
2021/08/08 10:34:54;;;;;;;12.32;4.18;;;18.80;99.90;;;;;;5133363;28;20457;-79
2021/08/08 10:37:23;;;;;;;15.32;4.60;;;18.70;99.90;;;;;;5149718;28;20050;-79
2021/08/08 10:39:51;;;;;;;20.88;4.93;;;18.90;99.90;;;;;;5150136;28;20212;-80
2021/08/08 10:42:19;;;;;;;20.08;4.82;;;19.20;99.90;;;;;;5149575;28;20059;-79
2021/08/08 10:44:54;;;;;;;18.25;3.92;;;19.40;99.90;;;;;;5151194;28;20032;-78
2021/08/08 10:47:29;;;;;;;14.35;3.78;;;19.40;99.90;;;;;;5149499;28;20051;-79
2021/08/08 10:50:15;;;;;;;14.95;4.00;;;19.30;99.90;;;;;;5151040;28;20118;-79
2021/08/08 10:52:44;;;;;;;15.23;4.15;;;19.20;99.90;;;;;;5133061;28;20040;-78
2021/08/08 10:55:29;;;;;;;13.55;4.07;;;19.10;99.90;;;;;;5132525;28;20043;-78
2021/08/08 10:58:01;;;;;;;13.77;4.30;;;19.00;99.90;;;;;;5150929;28;20035;-79
2021/08/08 11:00:33;;;;;;;14.30;4.05;;;19.00;99.90;;;;;;5149247;28;20046;-77
2021/08/08 11:03:10;;;;;;;14.05;3.58;;;19.10;99.90;;;;;;5132852;28;20105;-77
2021/08/08 11:05:37;;;;;;;12.52;4.28;;;19.20;99.90;;;;;;5150837;28;20036;-77
2021/08/08 11:08:06;;;;;;;12.48;3.88;;;19.30;99.90;;;;;;5132544;28;20118;-78
2021/08/08 11:10:39;;;;;;;14.48;3.70;;;19.50;99.90;;;;;;5150487;27;20042;-78
2021/08/08 11:13:21;;;;;;;12.82;3.15;;;19.80;99.90;;;;;;5150855;27;20476;-78
2021/08/08 11:15:49;;;;;;;11.43;3.40;;;19.90;99.90;;;;;;5149799;28;20032;-78
2021/08/08 11:18:17;;;;;;;17.50;3.78;;;20.20;99.90;;;;;;5131985;28;20042;-79
2021/08/08 11:20:44;;;;;;;14.65;3.75;;;20.30;99.90;;;;;;5150594;28;20140;-79
2021/08/08 11:23:11;;;;;;;11.50;3.65;;;20.50;99.90;;;;;;5115330;28;20123;-78
2021/08/08 11:25:40;;;;;;;10.70;3.38;;;20.50;99.90;;;;;;5149420;28;20047;-79
2021/08/08 11:28:08;;;;;;;24.08;3.80;;;20.40;99.90;;;;;;5149170;28;20032;-78
2021/08/08 11:30:43;;;;;;;11.77;2.90;;;20.30;99.90;;;;;;5148948;28;20035;-77
2021/08/08 11:33:12;;;;;;;12.95;3.30;;;20.10;99.90;;;;;;5147842;28;20040;-78
2021/08/08 11:35:41;;;;;;;11.60;3.08;;;20.00;99.90;;;;;;5150101;28;20039;-78
2021/08/08 11:38:19;;;;;;;11.13;3.30;;;19.80;99.90;;;;;;5148675;28;20114;-78
2021/08/08 11:40:48;;;;;;;13.65;3.40;;;19.50;99.90;;;;;;5146948;28;20070;-78
2021/08/08 11:43:15;;;;;;;12.30;3.13;;;19.50;99.90;;;;;;5141816;28;20502;-80
2021/08/08 11:45:45;;;;;;;10.80;3.70;;;19.50;99.90;;;;;;5131971;28;20430;-80
2021/08/08 11:48:21;;;;;;;12.20;3.42;;;19.60;99.90;;;;;;5148739;28;20035;-80
2021/08/08 11:50:58;;;;;;;13.32;3.30;;;19.60;99.90;;;;;;5148736;28;20040;-76
2021/08/08 11:53:36;;;;;;;13.70;3.33;;;19.30;99.90;;;;;;5149218;28;20042;-78
2021/08/08 11:56:18;;;;;;;10.30;2.83;;;19.30;99.90;;;;;;5149710;28;20118;-79
2021/08/08 11:58:46;;;;;;;10.48;3.00;;;19.00;99.90;;;;;;5132005;28;20051;-76
2021/08/08 12:01:13;;;;;;;11.25;3.38;;;18.90;99.90;;;;;;5148411;28;20488;-78
2021/08/08 12:03:40;;;;;;;9.63;2.75;;;19.00;99.90;;;;;;5114002;28;20083;-78
2021/08/08 12:06:07;;;;;;;12.32;3.08;;;19.00;99.90;;;;;;5131515;28;20039;-77
2021/08/08 12:08:34;;;;;;;8.65;3.35;;;19.00;99.90;;;;;;5130857;28;20035;-78
2021/08/08 12:11:02;;;;;;;12.50;3.92;;;19.00;99.90;;;;;;5148174;28;20415;-79
2021/08/08 12:13:28;;;;;;;11.18;3.75;;;19.00;99.90;;;;;;5147810;28;20067;-78
2021/08/08 12:15:55;;;;;;;11.30;3.45;;;19.00;99.90;;;;;;5148143;28;20028;-78
2021/08/08 12:18:30;;;;;;;9.45;3.42;;;19.00;99.90;;;;;;5130676;28;20062;-78
2021/08/08 12:20:57;;;;;;;10.98;3.80;;;19.20;99.90;;;;;;5131342;28;20040;-78
2021/08/08 12:23:25;;;;;;;13.50;3.78;;;19.30;99.90;;;;;;5130618;28;20036;-78
2021/08/08 12:26:00;;;;;;;12.20;3.63;;;19.30;99.90;;;;;;5149176;28;20114;-77
2021/08/08 12:28:27;;;;;;;13.27;3.80;;;19.10;99.90;;;;;;5148641;28;20062;-79
2021/08/08 12:31:05;;;;;;;11.43;3.70;;;18.90;99.90;;;;;;5149033;28;20035;-79
2021/08/08 12:33:32;;;;;;;9.40;4.13;;;18.80;99.90;;;;;;5127142;28;20442;-78
2021/08/08 12:36:12;;;;;;;12.65;3.60;;;18.60;99.90;;;;;;5110854;28;20084;-78
2021/08/08 12:38:50;;;;;;;19.35;4.22;;;18.30;99.90;;;;;;5143539;28;20036;-79
2021/08/08 12:41:36;;;;;;;12.32;3.85;;;18.20;99.90;;;;;;5128421;28;20070;-78
2021/08/08 12:44:03;;;;;;;16.42;4.97;;;18.20;99.90;;;;;;5140829;28;20035;-78
2021/08/08 12:46:40;;;;;;;17.33;4.25;;;18.20;99.90;;;;;;5146802;28;20039;-79